createdAt,value
2023-04-07T00:00:16.191Z,28.00
2023-04-07T00:03:07.490Z,29.30
2023-04-07T00:05:36.130Z,26.80
2023-04-07T00:08:04.584Z,28.30
2023-04-07T00:10:32.885Z,27.80
2023-04-07T00:13:01.495Z,29.90
2023-04-07T00:15:30.236Z,27.60
2023-04-07T00:17:58.493Z,27.20
2023-04-07T00:20:26.720Z,27.30
2023-04-07T00:22:54.937Z,30.00
2023-04-07T00:25:23.198Z,29.60
2023-04-07T00:27:51.405Z,27.50
2023-04-07T00:30:19.820Z,26.10
2023-04-07T00:32:48.188Z,24.90
2023-04-07T00:35:16.607Z,27.90
2023-04-07T00:37:44.968Z,27.60
2023-04-07T00:40:13.243Z,28.50
2023-04-07T00:42:42.430Z,28.20
2023-04-07T00:45:11.751Z,27.90
2023-04-07T00:47:40.763Z,29.20
2023-04-07T00:50:09.387Z,28.00
2023-04-07T00:52:37.805Z,28.20
2023-04-07T00:55:06.528Z,26.90
2023-04-07T00:57:34.801Z,26.50
2023-04-07T01:00:06.846Z,30.70
2023-04-07T01:02:57.047Z,28.10
2023-04-07T01:05:51.914Z,27.10
2023-04-07T01:08:22.320Z,25.90
2023-04-07T01:10:56.999Z,27.30
2023-04-07T01:13:49.659Z,28.10
2023-04-07T01:16:37.236Z,26.70
2023-04-07T01:19:36.462Z,29.10
2023-04-07T01:22:30.587Z,28.40
2023-04-07T01:25:15.814Z,26.90
2023-04-07T01:27:53.099Z,27.60
2023-04-07T01:30:24.567Z,25.70
2023-04-07T01:32:54.652Z,26.40
2023-04-07T01:35:24.444Z,29.60
2023-04-07T01:37:53.438Z,27.90
2023-04-07T01:40:22.394Z,26.00
2023-04-07T01:42:52.582Z,26.60
2023-04-07T01:45:21.833Z,27.20
2023-04-07T01:47:53.170Z,25.40
2023-04-07T01:50:22.858Z,29.90
2023-04-07T01:52:52.924Z,29.20
2023-04-07T01:55:22.575Z,28.30
2023-04-07T01:58:05.983Z,26.00
2023-04-07T02:00:34.500Z,26.50
2023-04-07T02:03:27.688Z,26.80
2023-04-07T02:06:02.929Z,28.80
2023-04-07T02:08:33.735Z,29.10
2023-04-07T02:11:04.099Z,28.50
2023-04-07T02:13:37.612Z,26.70
2023-04-07T02:16:07.591Z,26.90
2023-04-07T02:18:38.005Z,25.40
2023-04-07T02:21:09.030Z,27.20
2023-04-07T02:23:38.033Z,30.00
2023-04-07T02:26:07.774Z,29.10
2023-04-07T02:28:36.203Z,27.50
2023-04-07T02:31:04.571Z,26.40
2023-04-07T02:33:33.960Z,28.00
2023-04-07T02:36:02.197Z,28.30
2023-04-07T02:38:32.281Z,31.40
2023-04-07T02:41:00.542Z,26.90
2023-04-07T02:43:31.847Z,27.80
2023-04-07T02:46:00.174Z,25.60
2023-04-07T02:48:28.514Z,28.70
2023-04-07T02:50:57.013Z,30.50
2023-04-07T02:53:25.352Z,29.50
2023-04-07T02:55:53.692Z,28.00
2023-04-07T02:58:22.228Z,27.40
2023-04-07T03:00:50.938Z,26.10
2023-04-07T03:03:23.281Z,25.40
2023-04-07T03:06:12.126Z,28.40
2023-04-07T03:08:48.446Z,28.00
2023-04-07T03:11:16.683Z,25.60
2023-04-07T03:13:44.977Z,25.20
2023-04-07T03:16:14.173Z,26.80
2023-04-07T03:18:53.437Z,26.30
2023-04-07T03:21:22.387Z,29.90
2023-04-07T03:23:51.235Z,27.20
2023-04-07T03:26:20.035Z,25.00
2023-04-07T03:28:48.414Z,25.10
2023-04-07T03:31:17.112Z,25.00
2023-04-07T03:33:46.206Z,26.50
2023-04-07T03:36:14.652Z,27.30
2023-04-07T03:38:43.235Z,25.90
2023-04-07T03:41:11.577Z,26.80
2023-04-07T03:43:40.075Z,26.60
2023-04-07T03:46:08.413Z,27.30
2023-04-07T03:48:36.859Z,29.40
2023-04-07T03:51:08.468Z,26.40
2023-04-07T03:53:36.678Z,27.40
2023-04-07T03:56:29.051Z,27.80
2023-04-07T03:58:59.234Z,30.90
2023-04-07T04:01:31.922Z,26.30
2023-04-07T04:04:05.916Z,25.00
2023-04-07T04:06:34.709Z,26.00
2023-04-07T04:09:10.095Z,26.10
2023-04-07T04:11:41.684Z,26.80
2023-04-07T04:14:10.022Z,28.80
2023-04-07T04:16:38.855Z,26.90
2023-04-07T04:19:12.695Z,27.90
2023-04-07T04:21:41.130Z,25.70
2023-04-07T04:24:09.430Z,25.50
2023-04-07T04:26:38.944Z,28.90
2023-04-07T04:29:11.758Z,29.10
2023-04-07T04:31:40.767Z,29.00
2023-04-07T04:34:10.455Z,28.80
2023-04-07T04:36:41.790Z,26.10
2023-04-07T04:39:10.198Z,27.00
2023-04-07T04:41:39.968Z,25.70
2023-04-07T04:44:08.858Z,28.50
2023-04-07T04:46:39.278Z,28.50
2023-04-07T04:49:08.142Z,29.30
2023-04-07T04:51:37.841Z,27.70
2023-04-07T04:54:13.126Z,26.00
2023-04-07T04:56:42.990Z,26.90
2023-04-07T04:59:32.262Z,29.50
2023-04-07T05:02:03.855Z,26.70
2023-04-07T05:04:33.439Z,26.30
2023-04-07T05:07:09.244Z,27.80
2023-04-07T05:09:37.527Z,26.40
2023-04-07T05:12:06.203Z,25.30
2023-04-07T05:14:38.613Z,27.20
2023-04-07T05:17:08.386Z,26.80
2023-04-07T05:19:36.830Z,28.20
2023-04-07T05:22:12.187Z,28.00
2023-04-07T05:24:50.435Z,28.00
2023-04-07T05:27:19.579Z,27.00
2023-04-07T05:29:50.696Z,28.10
2023-04-07T05:32:28.704Z,27.80
2023-04-07T05:34:57.851Z,28.10
2023-04-07T05:37:29.259Z,27.80
2023-04-07T05:39:58.445Z,27.60
2023-04-07T05:42:26.893Z,29.40
2023-04-07T05:44:56.435Z,28.00
2023-04-07T05:47:25.518Z,29.20
2023-04-07T05:49:54.277Z,26.00
2023-04-07T05:52:23.164Z,25.70
2023-04-07T05:54:57.056Z,26.10
2023-04-07T05:57:28.562Z,28.20
2023-04-07T05:59:58.170Z,26.20
2023-04-07T06:02:26.678Z,27.50
2023-04-07T06:04:55.572Z,28.40
2023-04-07T06:07:24.289Z,27.10
2023-04-07T06:09:52.655Z,28.30
2023-04-07T06:12:21.183Z,26.50
2023-04-07T06:14:55.674Z,25.30
2023-04-07T06:17:24.100Z,24.50
2023-04-07T06:19:52.523Z,26.20
2023-04-07T06:22:20.795Z,22.80
2023-04-07T06:24:49.195Z,24.30
2023-04-07T06:27:18.572Z,24.40
2023-04-07T06:29:49.064Z,24.40
2023-04-07T06:32:17.475Z,22.10
2023-04-07T06:34:46.200Z,22.40
2023-04-07T06:37:17.172Z,22.80
2023-04-07T06:39:45.620Z,24.20
2023-04-07T06:42:13.865Z,22.90
2023-04-07T06:44:50.315Z,32.30
2023-04-07T06:47:18.685Z,24.50
2023-04-07T06:49:46.928Z,28.30
2023-04-07T06:52:15.677Z,27.20
2023-04-07T06:54:44.426Z,29.50
2023-04-07T06:57:12.856Z,25.30
2023-04-07T06:59:41.381Z,25.60
2023-04-07T07:02:09.842Z,25.60
2023-04-07T07:04:39.084Z,23.30
2023-04-07T07:07:07.561Z,24.30
2023-04-07T07:09:35.726Z,23.00
2023-04-07T07:12:04.463Z,22.90
2023-04-07T07:14:33.024Z,24.20
2023-04-07T07:17:01.365Z,23.80
2023-04-07T07:19:29.635Z,24.90
2023-04-07T07:21:57.930Z,23.40
2023-04-07T07:24:26.193Z,23.50
2023-04-07T07:26:54.528Z,23.20
2023-04-07T07:29:23.059Z,22.90
2023-04-07T07:31:51.712Z,25.80
2023-04-07T07:34:20.148Z,22.90
2023-04-07T07:36:48.462Z,22.90
2023-04-07T07:39:16.679Z,24.30
2023-04-07T07:41:45.534Z,22.10
2023-04-07T07:44:13.910Z,22.60
2023-04-07T07:46:42.190Z,23.40
2023-04-07T07:49:10.549Z,23.30
2023-04-07T07:51:38.919Z,22.20
2023-04-07T07:54:07.272Z,23.30
2023-04-07T07:56:35.928Z,23.90
2023-04-07T07:59:08.634Z,22.20
2023-04-07T08:01:36.867Z,22.90
2023-04-07T08:04:05.829Z,22.10
2023-04-07T08:06:34.110Z,20.20
2023-04-07T08:09:02.704Z,21.70
2023-04-07T08:11:31.106Z,23.10
2023-04-07T08:13:59.370Z,22.00
2023-04-07T08:16:27.835Z,23.40
2023-04-07T08:18:59.213Z,21.20
2023-04-07T08:21:28.620Z,22.30
2023-04-07T08:23:57.840Z,21.50
2023-04-07T08:26:26.253Z,24.20
2023-04-07T08:28:58.749Z,23.10
2023-04-07T08:31:27.717Z,23.30
2023-04-07T08:33:58.386Z,23.00
2023-04-07T08:36:28.319Z,22.80
2023-04-07T08:38:58.806Z,20.90
2023-04-07T08:41:44.407Z,20.60
2023-04-07T08:44:18.890Z,21.90
2023-04-07T08:46:50.564Z,21.30
2023-04-07T08:49:21.463Z,22.40
2023-04-07T08:51:51.913Z,21.70
2023-04-07T08:54:22.731Z,21.30
2023-04-07T08:56:51.998Z,20.50
2023-04-07T08:59:26.995Z,19.70
2023-04-07T09:01:56.870Z,20.00
2023-04-07T09:04:27.791Z,21.20
2023-04-07T09:06:57.361Z,21.90
2023-04-07T09:09:26.220Z,21.70
2023-04-07T09:11:54.736Z,18.50
2023-04-07T09:14:25.140Z,18.60
2023-04-07T09:16:55.206Z,20.20
2023-04-07T09:19:27.581Z,21.00
2023-04-07T09:21:56.418Z,20.10
2023-04-07T09:24:31.755Z,20.00
2023-04-07T09:27:17.979Z,20.50
2023-04-07T09:29:48.105Z,19.90
2023-04-07T09:32:41.737Z,21.00
2023-04-07T09:35:10.645Z,21.00
2023-04-07T09:37:39.330Z,20.70
2023-04-07T09:40:08.807Z,19.60
2023-04-07T09:42:46.614Z,20.30
2023-04-07T09:45:33.973Z,17.90
2023-04-07T09:48:19.287Z,21.80
2023-04-07T09:50:52.260Z,20.40
2023-04-07T09:53:20.523Z,19.40
2023-04-07T09:55:50.454Z,19.20
2023-04-07T09:58:19.653Z,18.60
2023-04-07T10:00:48.162Z,18.70
2023-04-07T10:03:17.113Z,19.50
2023-04-07T10:05:46.964Z,19.20
2023-04-07T10:08:15.837Z,19.20
2023-04-07T10:10:44.608Z,20.10
2023-04-07T10:13:13.284Z,19.50
2023-04-07T10:15:41.851Z,18.00
2023-04-07T10:18:11.096Z,17.50
2023-04-07T10:20:42.307Z,15.70
2023-04-07T10:23:24.460Z,16.70
2023-04-07T10:25:56.826Z,17.30
2023-04-07T10:28:28.296Z,18.00
2023-04-07T10:30:58.248Z,18.80
2023-04-07T10:33:53.488Z,18.00
2023-04-07T10:36:22.230Z,17.80
2023-04-07T10:39:23.775Z,17.50
2023-04-07T10:41:52.461Z,16.40
2023-04-07T10:44:39.169Z,16.50
2023-04-07T10:47:08.056Z,17.00
2023-04-07T10:49:36.729Z,16.50
2023-04-07T10:52:15.028Z,16.50
2023-04-07T10:54:43.491Z,15.80
2023-04-07T10:57:14.612Z,16.70
2023-04-07T11:00:12.014Z,18.10
2023-04-07T11:02:41.617Z,17.20
2023-04-07T11:05:21.895Z,16.70
2023-04-07T11:07:54.255Z,15.80
2023-04-07T11:10:23.520Z,16.20
2023-04-07T11:13:06.547Z,16.80
2023-04-07T11:15:39.382Z,17.10
2023-04-07T11:18:14.634Z,17.80
2023-04-07T11:20:53.481Z,17.60
2023-04-07T11:23:25.360Z,18.70
2023-04-07T11:26:02.237Z,18.50
2023-04-07T11:28:31.775Z,17.70
2023-04-07T11:31:00.609Z,17.60
2023-04-07T11:33:31.791Z,17.00
2023-04-07T11:36:02.365Z,20.20
2023-04-07T11:38:39.139Z,20.90
2023-04-07T11:41:14.535Z,19.90
2023-04-07T11:43:43.032Z,19.80
2023-04-07T11:46:17.473Z,19.50
2023-04-07T11:48:47.569Z,19.40
2023-04-07T11:51:21.426Z,17.50
2023-04-07T11:53:57.081Z,18.40
2023-04-07T11:56:28.314Z,20.60
2023-04-07T11:58:57.392Z,18.60
2023-04-07T12:01:40.901Z,19.90
2023-04-07T12:04:14.395Z,20.90
2023-04-07T12:06:44.290Z,21.10
2023-04-07T12:09:27.513Z,19.80
2023-04-07T12:11:58.122Z,19.90
2023-04-07T12:14:28.038Z,23.10
2023-04-07T12:16:58.286Z,20.50
2023-04-07T12:19:28.491Z,20.40
2023-04-07T12:21:57.397Z,19.90
2023-04-07T12:24:25.678Z,21.30
2023-04-07T12:26:53.998Z,21.60
2023-04-07T12:29:22.248Z,20.60
2023-04-07T12:31:51.357Z,21.40
2023-04-07T12:34:20.205Z,22.20
2023-04-07T12:36:48.781Z,20.80
2023-04-07T12:39:17.057Z,22.10
2023-04-07T12:41:47.728Z,21.20
2023-04-07T12:44:16.841Z,21.70
2023-04-07T12:46:45.485Z,22.00
2023-04-07T12:49:13.838Z,21.40
2023-04-07T12:51:42.295Z,22.00
2023-04-07T12:54:10.916Z,23.90
2023-04-07T12:56:40.985Z,23.00
2023-04-07T12:59:09.803Z,22.90
2023-04-07T13:01:38.400Z,20.40
2023-04-07T13:04:06.926Z,21.40
2023-04-07T13:06:35.347Z,23.90
2023-04-07T13:09:03.861Z,22.40
2023-04-07T13:11:32.038Z,22.40
2023-04-07T13:14:01.554Z,21.00
2023-04-07T13:16:30.640Z,23.90
2023-04-07T13:18:58.936Z,21.30
2023-04-07T13:21:45.211Z,21.10
2023-04-07T13:24:15.117Z,21.00
2023-04-07T13:26:43.478Z,20.50
2023-04-07T13:29:11.684Z,22.20
2023-04-07T13:31:39.995Z,21.20
2023-04-07T13:34:08.635Z,22.40
2023-04-07T13:36:36.927Z,23.90
2023-04-07T13:39:05.505Z,21.90
2023-04-07T13:41:34.295Z,21.20
2023-04-07T13:44:02.649Z,22.90
2023-04-07T13:46:31.420Z,23.60
2023-04-07T13:49:00.055Z,27.90
2023-04-07T13:51:29.540Z,23.30
2023-04-07T13:53:57.859Z,29.30
2023-04-07T13:56:26.215Z,22.40
2023-04-07T13:58:54.883Z,22.40
2023-04-07T14:01:24.196Z,22.70
2023-04-07T14:03:53.037Z,32.60
2023-04-07T14:06:24.376Z,30.80
2023-04-07T14:08:53.210Z,32.00
2023-04-07T14:11:22.820Z,38.30
2023-04-07T14:13:53.158Z,28.70
2023-04-07T14:16:21.693Z,28.00
2023-04-07T14:18:51.613Z,25.80
2023-04-07T14:21:20.050Z,28.70
2023-04-07T14:23:48.996Z,25.20
2023-04-07T14:26:17.255Z,30.20
2023-04-07T14:28:45.945Z,25.90
2023-04-07T14:31:17.901Z,25.20
2023-04-07T14:33:46.941Z,24.00
2023-04-07T14:36:17.012Z,24.70
2023-04-07T14:38:45.422Z,25.60
2023-04-07T14:41:13.719Z,27.60
2023-04-07T14:43:42.654Z,33.00
2023-04-07T14:46:12.521Z,27.70
2023-04-07T14:48:41.148Z,28.90
2023-04-07T14:51:13.132Z,26.20
2023-04-07T14:53:42.214Z,23.70
2023-04-07T14:56:10.730Z,48.00
2023-04-07T14:58:40.915Z,29.30
2023-04-07T15:01:09.341Z,35.60
2023-04-07T15:03:37.852Z,29.10
2023-04-07T15:06:08.738Z,60.30
2023-04-07T15:08:37.877Z,57.60
2023-04-07T15:11:10.341Z,50.60
2023-04-07T15:13:38.533Z,58.50
2023-04-07T15:16:11.632Z,42.20
2023-04-07T15:18:42.878Z,45.10
2023-04-07T15:21:12.517Z,33.40
2023-04-07T15:23:42.065Z,31.30
2023-04-07T15:26:11.081Z,26.00
2023-04-07T15:28:39.461Z,27.40
2023-04-07T15:31:09.149Z,38.00
2023-04-07T15:33:39.518Z,38.50
2023-04-07T15:36:09.245Z,41.60
2023-04-07T15:38:39.478Z,30.90
2023-04-07T15:41:07.935Z,39.00
2023-04-07T15:43:36.994Z,34.40
2023-04-07T15:46:05.602Z,25.10
2023-04-07T15:48:33.931Z,23.00
2023-04-07T15:51:02.315Z,31.80
2023-04-07T15:53:31.016Z,32.30
2023-04-07T15:55:59.374Z,22.80
2023-04-07T15:58:27.690Z,35.00
2023-04-07T16:00:56.214Z,30.30
2023-04-07T16:03:24.942Z,26.30
2023-04-07T16:05:54.134Z,26.30
2023-04-07T16:08:22.468Z,37.50
2023-04-07T16:10:55.416Z,29.90
2023-04-07T16:13:23.778Z,29.30
2023-04-07T16:15:56.984Z,25.10
2023-04-07T16:18:25.658Z,32.20
2023-04-07T16:20:53.910Z,51.50
2023-04-07T16:23:22.222Z,44.60
2023-04-07T16:25:50.480Z,36.30
2023-04-07T16:28:18.789Z,27.70
2023-04-07T16:30:47.054Z,22.70
2023-04-07T16:33:15.549Z,24.80
2023-04-07T16:35:43.905Z,22.30
2023-04-07T16:38:12.449Z,20.70
2023-04-07T16:40:44.097Z,21.70
2023-04-07T16:43:16.298Z,22.80
2023-04-07T16:45:50.290Z,20.90
2023-04-07T16:48:19.354Z,17.90
2023-04-07T16:50:47.771Z,19.10
2023-04-07T16:53:16.013Z,19.30
2023-04-07T16:55:44.284Z,19.40
2023-04-07T16:58:12.649Z,18.70
2023-04-07T17:00:40.950Z,19.10
2023-04-07T17:03:09.345Z,19.50
2023-04-07T17:05:37.827Z,18.90
2023-04-07T17:08:06.039Z,21.00
2023-04-07T17:10:34.286Z,21.40
2023-04-07T17:13:02.552Z,19.30
2023-04-07T17:15:30.816Z,19.40
2023-04-07T17:17:59.768Z,19.60
2023-04-07T17:20:28.178Z,20.50
2023-04-07T17:22:56.524Z,18.90
2023-04-07T17:25:24.954Z,20.60
2023-04-07T17:27:55.249Z,21.40
2023-04-07T17:30:23.533Z,37.30
2023-04-07T17:32:53.400Z,25.80
2023-04-07T17:35:22.739Z,26.60
2023-04-07T17:37:51.965Z,47.60
2023-04-07T17:40:20.480Z,38.30
2023-04-07T17:42:49.791Z,29.80
2023-04-07T17:45:18.211Z,38.60
2023-04-07T17:47:46.580Z,39.20
2023-04-07T17:50:16.435Z,28.50
2023-04-07T17:52:45.324Z,35.70
2023-04-07T17:55:13.829Z,33.30
2023-04-07T17:57:42.334Z,25.60
2023-04-07T18:00:11.208Z,27.20
2023-04-07T18:02:43.499Z,27.50
2023-04-07T18:05:12.528Z,22.80
2023-04-07T18:07:41.303Z,23.60
2023-04-07T18:10:10.122Z,28.30
2023-04-07T18:12:39.080Z,31.30
2023-04-07T18:15:08.149Z,33.70
2023-04-07T18:17:37.013Z,33.50
2023-04-07T18:20:06.060Z,32.40
2023-04-07T18:22:34.434Z,33.60
2023-04-07T18:25:03.006Z,38.00
2023-04-07T18:27:31.376Z,36.40
2023-04-07T18:29:59.661Z,34.40
2023-04-07T18:32:28.012Z,30.10
2023-04-07T18:34:56.465Z,28.60
2023-04-07T18:37:24.974Z,26.80
2023-04-07T18:39:53.909Z,27.40
2023-04-07T18:42:22.140Z,30.60
2023-04-07T18:44:50.692Z,29.60
2023-04-07T18:47:19.014Z,24.80
2023-04-07T18:49:47.266Z,22.60
2023-04-07T18:52:15.545Z,23.00
2023-04-07T18:54:44.602Z,23.60
2023-04-07T18:57:12.757Z,24.60
2023-04-07T18:59:40.997Z,22.80
2023-04-07T19:02:09.463Z,24.30
2023-04-07T19:04:37.784Z,21.20
2023-04-07T19:07:06.188Z,23.10
2023-04-07T19:09:34.544Z,23.50
2023-04-07T19:12:02.747Z,24.20
2023-04-07T19:14:30.994Z,24.80
2023-04-07T19:16:59.426Z,23.80
2023-04-07T19:19:28.505Z,25.20
2023-04-07T19:21:56.710Z,24.60
2023-04-07T19:24:26.062Z,26.60
2023-04-07T19:26:54.279Z,27.80
2023-04-07T19:29:22.675Z,25.90
2023-04-07T19:31:53.027Z,30.00
2023-04-07T19:34:21.427Z,28.20
2023-04-07T19:36:49.694Z,28.80
2023-04-07T19:39:18.024Z,28.80
2023-04-07T19:41:46.381Z,31.10
2023-04-07T19:44:14.971Z,32.10
2023-04-07T19:46:43.411Z,35.60
2023-04-07T19:49:11.737Z,34.20
2023-04-07T19:51:41.589Z,33.00
2023-04-07T19:54:09.859Z,34.60
2023-04-07T19:56:38.564Z,32.00
2023-04-07T19:59:07.518Z,27.80
2023-04-07T20:01:36.013Z,28.90
2023-04-07T20:04:04.545Z,26.70
2023-04-07T20:06:33.901Z,29.60
2023-04-07T20:09:02.527Z,31.10
2023-04-07T20:11:30.808Z,31.10
2023-04-07T20:13:59.166Z,30.10
2023-04-07T20:16:27.514Z,29.90
2023-04-07T20:18:55.854Z,32.80
2023-04-07T20:21:24.280Z,38.10
2023-04-07T20:23:52.645Z,38.80
2023-04-07T20:26:22.202Z,31.10
2023-04-07T20:28:51.039Z,29.60
2023-04-07T20:31:19.737Z,30.70
2023-04-07T20:33:48.451Z,30.90
2023-04-07T20:36:17.964Z,32.70
2023-04-07T20:38:48.037Z,31.20
2023-04-07T20:41:16.751Z,33.90
2023-04-07T20:43:45.164Z,35.60
2023-04-07T20:46:13.561Z,33.70
2023-04-07T20:48:42.135Z,36.20
2023-04-07T20:51:11.094Z,35.90
2023-04-07T20:53:40.852Z,37.00
2023-04-07T20:56:09.312Z,35.90
2023-04-07T20:58:37.612Z,38.70
2023-04-07T21:01:06.079Z,40.20
2023-04-07T21:03:35.971Z,41.30
2023-04-07T21:06:04.812Z,39.10
2023-04-07T21:08:33.201Z,40.40
2023-04-07T21:11:01.365Z,43.00
2023-04-07T21:13:29.711Z,42.20
2023-04-07T21:15:59.391Z,40.60
2023-04-07T21:18:27.778Z,39.80
2023-04-07T21:21:00.051Z,41.00
2023-04-07T21:23:28.441Z,39.70
2023-04-07T21:26:00.766Z,39.00
2023-04-07T21:28:29.280Z,39.90
2023-04-07T21:30:58.270Z,36.20
2023-04-07T21:33:26.923Z,38.60
2023-04-07T21:35:55.485Z,41.00
2023-04-07T21:38:23.868Z,38.40
2023-04-07T21:40:52.163Z,40.60
2023-04-07T21:43:20.526Z,38.50
2023-04-07T21:45:48.941Z,38.40
2023-04-07T21:48:20.880Z,39.00
2023-04-07T21:50:53.010Z,36.50
2023-04-07T21:53:21.607Z,38.70
2023-04-07T21:55:49.976Z,38.20
2023-04-07T21:58:18.310Z,40.70
2023-04-07T22:00:50.188Z,36.80
2023-04-07T22:03:19.454Z,36.00
2023-04-07T22:05:47.941Z,36.70
2023-04-07T22:08:16.803Z,36.70
2023-04-07T22:10:45.342Z,39.90
2023-04-07T22:13:13.575Z,37.20
2023-04-07T22:15:41.767Z,37.50
2023-04-07T22:18:11.783Z,38.80
2023-04-07T22:20:41.900Z,59.00
2023-04-07T22:23:10.392Z,54.60
2023-04-07T22:25:38.810Z,49.40
2023-04-07T22:28:07.118Z,45.30
2023-04-07T22:30:35.561Z,44.50
2023-04-07T22:33:04.909Z,42.00
2023-04-07T22:35:33.642Z,43.40
2023-04-07T22:38:02.014Z,41.20
2023-04-07T22:40:30.378Z,38.30
2023-04-07T22:42:58.565Z,41.90
2023-04-07T22:45:26.967Z,40.10
2023-04-07T22:47:55.246Z,40.00
2023-04-07T22:50:23.473Z,39.10
2023-04-07T22:52:51.754Z,39.30
2023-04-07T22:55:20.651Z,40.90
2023-04-07T22:57:48.933Z,40.20
2023-04-07T23:00:17.252Z,40.20
2023-04-07T23:02:45.808Z,38.60
2023-04-07T23:05:14.102Z,36.90
2023-04-07T23:07:42.443Z,33.70
2023-04-07T23:10:10.972Z,34.20
2023-04-07T23:12:39.300Z,33.90
2023-04-07T23:15:07.945Z,35.70
2023-04-07T23:17:36.871Z,37.50
2023-04-07T23:20:06.055Z,35.40
2023-04-07T23:22:34.357Z,33.50
2023-04-07T23:25:03.248Z,31.10
2023-04-07T23:27:32.861Z,31.20
2023-04-07T23:30:01.685Z,30.80
2023-04-07T23:32:30.207Z,30.30
2023-04-07T23:34:58.502Z,31.70
2023-04-07T23:37:26.863Z,33.50
2023-04-07T23:39:55.091Z,36.00
2023-04-07T23:42:24.004Z,35.10
2023-04-07T23:44:52.470Z,35.20
2023-04-07T23:47:21.544Z,33.40
2023-04-07T23:49:49.860Z,31.80
2023-04-07T23:52:21.400Z,30.20
2023-04-07T23:54:51.111Z,29.30
2023-04-07T23:57:19.443Z,30.10
2023-04-07T23:59:47.734Z,30.40
